Aérodrome :
LOGIN :

S'inscrire | Disclaimer

   EN    FR    IT 

 










Légende :    VFR   VFR Marginal   IFR   IFR Intensif   IFR Très Intensif
Visi : 
Plafond : 
>= 8 km
>= 3000ft
5 à 8 km
1000 à 3000 ft
1500m à 5 km
500 à 1000 ft
800 à 1500m
200 à 500 ft
< 800m
< 200 ft
Symboles :   Orages  Brouillard  Fortes neiges  Fortes précipitations  Vent > 20 kt
SIGMETs :   Divers  Orages  Givrage  Turbulence  Onde Orograph.  Cendres Volcan.






- Altitude de l'aérodrome : 359 ft
- Code IATA : BVA


LFOB - Beauvais

DERNIER METAR :
  • 171200Z AUTO 31012KT 9999 SCT031 07/04 Q1024 NOSIG

METARs EXPIRÉS :
  • 171130Z AUTO 31007KT CAVOK 06/05 Q1023 NOSIG
  • 171100Z AUTO 30009KT 9999 FEW021 05/04 Q1023 NOSIG
  • 171030Z AUTO 30011KT 9999 SCT021 BKN027 BKN036 04/03 Q1023 NOSIG
  • 171000Z AUTO 30006KT 9999 FEW024 SCT058 BKN070 04/04 Q1023 TEMPO 4000 RA BKN013 SCT030CB
  • 170930Z AUTO 30008KT 9999 FEW021 BKN031 BKN037 03/02 Q1022 TEMPO 4000 RA BKN013 SCT030CB

TAF TAF LFOB
Valide du 17 à 12h jusqu'au 18 à 12h UTC


171100Z 1712/1812 31010KT 9999 SCT020 BKN040
BECMG 1718/1720 VRB02KT
BECMG 1800/1804 3000 BR
PROB40 1803/1807 0500 FG VV///
BECMG 1810/1812 8000 NSW
ATIS : +33 3 44 11 49 28



MET'MAP, la Météo Aéronautique d'un coup d'oeil ! - Copyright ORBIFLY Décembre 2007 - Disclaimer

ORBIFLY MET'MAP TEAM :

Programmation & Développement : Alexandra Zaïnal
Sur une idée originale de : Baudouin d'Aumeries
Assistance à la programmation : Marc-Olivier Méhu
Soutien technique & logistique : Manuel Goepfert

Contact : metmap@orbifly.com




SOURCES & CREDITS :

   NOAA